sensor_id;sensor_type;location;lat;lon;timestamp;P1;durP1;ratioP1;P2;durP2;ratioP2
33505;SDS011;19843;51.040;13.782;2022-12-10T00:03:31;63.00;;;56.72;;
33505;SDS011;19843;51.040;13.782;2022-12-10T00:06:00;61.40;;;54.95;;
33505;SDS011;19843;51.040;13.782;2022-12-10T00:08:28;55.70;;;49.60;;
33505;SDS011;19843;51.040;13.782;2022-12-10T00:10:56;55.60;;;50.03;;
33505;SDS011;19843;51.040;13.782;2022-12-10T00:13:24;58.55;;;53.05;;
33505;SDS011;19843;51.040;13.782;2022-12-10T00:15:52;60.33;;;54.70;;
33505;SDS011;19843;51.040;13.782;2022-12-10T00:18:19;56.58;;;51.08;;
33505;SDS011;19843;51.040;13.782;2022-12-10T00:20:47;63.03;;;56.30;;
33505;SDS011;19843;51.040;13.782;2022-12-10T00:23:17;59.28;;;53.53;;
33505;SDS011;19843;51.040;13.782;2022-12-10T00:25:48;61.80;;;54.40;;
33505;SDS011;19843;51.040;13.782;2022-12-10T00:28:16;62.05;;;55.05;;
33505;SDS011;19843;51.040;13.782;2022-12-10T00:30:43;59.15;;;53.22;;
33505;SDS011;19843;51.040;13.782;2022-12-10T00:33:11;61.80;;;55.70;;
33505;SDS011;19843;51.040;13.782;2022-12-10T00:35:38;57.38;;;51.90;;
33505;SDS011;19843;51.040;13.782;2022-12-10T00:38:06;56.08;;;50.50;;
33505;SDS011;19843;51.040;13.782;2022-12-10T00:40:35;57.40;;;51.95;;
33505;SDS011;19843;51.040;13.782;2022-12-10T00:43:02;60.92;;;54.22;;
33505;SDS011;19843;51.040;13.782;2022-12-10T00:45:30;60.90;;;54.97;;
33505;SDS011;19843;51.040;13.782;2022-12-10T00:47:57;64.65;;;58.00;;
33505;SDS011;19843;51.040;13.782;2022-12-10T00:50:25;61.50;;;55.45;;
33505;SDS011;19843;51.040;13.782;2022-12-10T00:52:52;57.83;;;52.30;;
33505;SDS011;19843;51.040;13.782;2022-12-10T00:55:20;59.58;;;53.58;;
33505;SDS011;19843;51.040;13.782;2022-12-10T00:57:49;65.35;;;57.08;;
33505;SDS011;19843;51.040;13.782;2022-12-10T01:00:19;57.60;;;50.28;;
33505;SDS011;19843;51.040;13.782;2022-12-10T01:02:47;59.47;;;53.70;;
33505;SDS011;19843;51.040;13.782;2022-12-10T01:05:15;59.10;;;53.22;;
33505;SDS011;19843;51.040;13.782;2022-12-10T01:07:42;53.50;;;48.33;;
33505;SDS011;19843;51.040;13.782;2022-12-10T01:10:10;62.35;;;56.33;;
33505;SDS011;19843;51.040;13.782;2022-12-10T01:12:37;63.70;;;53.78;;
33505;SDS011;19843;51.040;13.782;2022-12-10T01:15:07;70.25;;;60.50;;
33505;SDS011;19843;51.040;13.782;2022-12-10T01:17:35;59.67;;;53.90;;
33505;SDS011;19843;51.040;13.782;2022-12-10T01:20:03;65.43;;;59.05;;
33505;SDS011;19843;51.040;13.782;2022-12-10T01:22:31;61.78;;;55.75;;
33505;SDS011;19843;51.040;13.782;2022-12-10T01:24:59;59.47;;;53.67;;
33505;SDS011;19843;51.040;13.782;2022-12-10T01:27:26;59.80;;;54.33;;
33505;SDS011;19843;51.040;13.782;2022-12-10T01:29:54;63.97;;;57.90;;
33505;SDS011;19843;51.040;13.782;2022-12-10T01:32:22;62.38;;;55.92;;
33505;SDS011;19843;51.040;13.782;2022-12-10T01:34:50;60.45;;;54.60;;
33505;SDS011;19843;51.040;13.782;2022-12-10T01:37:17;67.50;;;60.78;;
33505;SDS011;19843;51.040;13.782;2022-12-10T01:39:45;63.75;;;57.55;;
33505;SDS011;19843;51.040;13.782;2022-12-10T01:42:13;65.60;;;59.38;;
33505;SDS011;19843;51.040;13.782;2022-12-10T01:47:27;1999.90;;;999.90;;
33505;SDS011;19843;51.040;13.782;2022-12-10T01:49:54;1999.90;;;999.90;;
33505;SDS011;19843;51.040;13.782;2022-12-10T01:52:23;1999.90;;;999.90;;
33505;SDS011;19843;51.040;13.782;2022-12-10T01:54:51;1999.90;;;999.90;;
33505;SDS011;19843;51.040;13.782;2022-12-10T01:57:20;1999.90;;;999.90;;
33505;SDS011;19843;51.040;13.782;2022-12-10T01:59:50;1999.90;;;999.90;;
33505;SDS011;19843;51.040;13.782;2022-12-10T02:02:23;1999.90;;;999.90;;
33505;SDS011;19843;51.040;13.782;2022-12-10T02:05:01;62.72;;;56.97;;
33505;SDS011;19843;51.040;13.782;2022-12-10T02:07:39;61.35;;;54.55;;
33505;SDS011;19843;51.040;13.782;2022-12-10T02:10:20;56.70;;;50.90;;
33505;SDS011;19843;51.040;13.782;2022-12-10T02:12:56;62.95;;;56.58;;
33505;SDS011;19843;51.040;13.782;2022-12-10T02:15:29;60.20;;;54.42;;
33505;SDS011;19843;51.040;13.782;2022-12-10T02:18:03;59.97;;;53.90;;
33505;SDS011;19843;51.040;13.782;2022-12-10T02:20:35;61.58;;;55.33;;
33505;SDS011;19843;51.040;13.782;2022-12-10T02:23:06;59.15;;;53.65;;
33505;SDS011;19843;51.040;13.782;2022-12-10T02:25:37;54.95;;;49.58;;
33505;SDS011;19843;51.040;13.782;2022-12-10T02:28:12;56.33;;;50.95;;
33505;SDS011;19843;51.040;13.782;2022-12-10T02:30:45;58.25;;;52.60;;
33505;SDS011;19843;51.040;13.782;2022-12-10T02:33:16;57.38;;;51.50;;
33505;SDS011;19843;51.040;13.782;2022-12-10T02:35:46;57.58;;;52.38;;
33505;SDS011;19843;51.040;13.782;2022-12-10T02:38:18;60.85;;;55.67;;
33505;SDS011;19843;51.040;13.782;2022-12-10T02:40:51;57.38;;;51.47;;
33505;SDS011;19843;51.040;13.782;2022-12-10T02:43:22;55.20;;;50.22;;
33505;SDS011;19843;51.040;13.782;2022-12-10T02:45:52;57.50;;;51.80;;
33505;SDS011;19843;51.040;13.782;2022-12-10T02:48:21;62.25;;;56.47;;
33505;SDS011;19843;51.040;13.782;2022-12-10T02:50:49;56.30;;;50.85;;
33505;SDS011;19843;51.040;13.782;2022-12-10T02:53:17;55.38;;;50.42;;
33505;SDS011;19843;51.040;13.782;2022-12-10T02:55:52;56.75;;;51.72;;
33505;SDS011;19843;51.040;13.782;2022-12-10T02:58:28;62.90;;;56.33;;
33505;SDS011;19843;51.040;13.782;2022-12-10T03:01:06;56.25;;;51.17;;
33505;SDS011;19843;51.040;13.782;2022-12-10T03:03:41;53.65;;;48.88;;
33505;SDS011;19843;51.040;13.782;2022-12-10T03:06:15;52.17;;;47.88;;
33505;SDS011;19843;51.040;13.782;2022-12-10T03:08:47;50.17;;;45.38;;
33505;SDS011;19843;51.040;13.782;2022-12-10T03:11:19;57.78;;;52.15;;
33505;SDS011;19843;51.040;13.782;2022-12-10T03:13:50;52.65;;;47.55;;
33505;SDS011;19843;51.040;13.782;2022-12-10T03:16:23;56.70;;;51.30;;
33505;SDS011;19843;51.040;13.782;2022-12-10T03:18:52;59.67;;;53.35;;
33505;SDS011;19843;51.040;13.782;2022-12-10T03:21:24;57.00;;;51.17;;
33505;SDS011;19843;51.040;13.782;2022-12-10T03:23:54;51.65;;;46.83;;
33505;SDS011;19843;51.040;13.782;2022-12-10T03:26:22;58.22;;;53.10;;
33505;SDS011;19843;51.040;13.782;2022-12-10T03:28:51;54.60;;;49.38;;
33505;SDS011;19843;51.040;13.782;2022-12-10T03:31:25;58.85;;;53.63;;
33505;SDS011;19843;51.040;13.782;2022-12-10T03:33:53;57.67;;;52.63;;
33505;SDS011;19843;51.040;13.782;2022-12-10T03:36:21;61.40;;;55.60;;
33505;SDS011;19843;51.040;13.782;2022-12-10T03:38:50;57.97;;;52.67;;
33505;SDS011;19843;51.040;13.782;2022-12-10T03:41:19;60.65;;;55.25;;
33505;SDS011;19843;51.040;13.782;2022-12-10T03:43:50;53.85;;;49.28;;
33505;SDS011;19843;51.040;13.782;2022-12-10T03:46:19;53.85;;;48.42;;
33505;SDS011;19843;51.040;13.782;2022-12-10T03:48:49;58.10;;;52.55;;
33505;SDS011;19843;51.040;13.782;2022-12-10T03:51:17;56.72;;;51.60;;
33505;SDS011;19843;51.040;13.782;2022-12-10T03:53:45;59.92;;;54.00;;
33505;SDS011;19843;51.040;13.782;2022-12-10T03:56:14;62.45;;;56.65;;
33505;SDS011;19843;51.040;13.782;2022-12-10T03:58:42;60.38;;;54.83;;
33505;SDS011;19843;51.040;13.782;2022-12-10T04:01:10;58.25;;;52.63;;
33505;SDS011;19843;51.040;13.782;2022-12-10T04:03:38;57.95;;;52.63;;
33505;SDS011;19843;51.040;13.782;2022-12-10T04:06:10;62.45;;;56.75;;
33505;SDS011;19843;51.040;13.782;2022-12-10T04:08:38;1999.90;;;999.90;;
33505;SDS011;19843;51.040;13.782;2022-12-10T04:11:07;1999.90;;;999.90;;
33505;SDS011;19843;51.040;13.782;2022-12-10T04:13:37;1999.90;;;999.90;;
33505;SDS011;19843;51.040;13.782;2022-12-10T04:16:37;1999.90;;;999.90;;
33505;SDS011;19843;51.040;13.782;2022-12-10T04:19:06;1999.90;;;999.90;;
33505;SDS011;19843;51.040;13.782;2022-12-10T04:21:36;1999.90;;;999.90;;
33505;SDS011;19843;51.040;13.782;2022-12-10T04:24:23;1999.90;;;999.90;;
33505;SDS011;19843;51.040;13.782;2022-12-10T04:27:09;1999.90;;;999.90;;
33505;SDS011;19843;51.040;13.782;2022-12-10T04:29:39;1999.90;;;999.90;;
33505;SDS011;19843;51.040;13.782;2022-12-10T04:32:07;1999.90;;;999.90;;
33505;SDS011;19843;51.040;13.782;2022-12-10T04:34:34;1032.15;;;529.03;;
33505;SDS011;19843;51.040;13.782;2022-12-10T04:37:03;547.88;;;293.75;;
33505;SDS011;19843;51.040;13.782;2022-12-10T04:39:31;61.63;;;56.38;;
33505;SDS011;19843;51.040;13.782;2022-12-10T04:44:27;66.57;;;61.05;;
33505;SDS011;19843;51.040;13.782;2022-12-10T04:46:55;63.80;;;57.92;;
33505;SDS011;19843;51.040;13.782;2022-12-10T04:49:23;64.20;;;58.20;;
33505;SDS011;19843;51.040;13.782;2022-12-10T04:51:51;61.65;;;55.60;;
33505;SDS011;19843;51.040;13.782;2022-12-10T04:54:21;547.55;;;292.95;;
33505;SDS011;19843;51.040;13.782;2022-12-10T04:56:48;57.30;;;51.92;;
33505;SDS011;19843;51.040;13.782;2022-12-10T04:59:16;546.72;;;291.83;;
33505;SDS011;19843;51.040;13.782;2022-12-10T05:01:44;1999.90;;;999.90;;
33505;SDS011;19843;51.040;13.782;2022-12-10T05:06:40;1999.90;;;999.90;;
33505;SDS011;19843;51.040;13.782;2022-12-10T05:09:09;1999.90;;;999.90;;
33505;SDS011;19843;51.040;13.782;2022-12-10T05:11:39;1999.90;;;999.90;;
33505;SDS011;19843;51.040;13.782;2022-12-10T05:14:08;1999.90;;;999.90;;
33505;SDS011;19843;51.040;13.782;2022-12-10T05:16:37;59.42;;;54.10;;
33505;SDS011;19843;51.040;13.782;2022-12-10T05:19:09;59.25;;;54.50;;
33505;SDS011;19843;51.040;13.782;2022-12-10T05:21:37;60.50;;;54.65;;
33505;SDS011;19843;51.040;13.782;2022-12-10T05:24:22;59.28;;;53.63;;
33505;SDS011;19843;51.040;13.782;2022-12-10T05:29:18;60.00;;;54.55;;
33505;SDS011;19843;51.040;13.782;2022-12-10T05:31:46;62.90;;;57.00;;
33505;SDS011;19843;51.040;13.782;2022-12-10T05:34:14;63.28;;;57.28;;
33505;SDS011;19843;51.040;13.782;2022-12-10T05:36:41;59.92;;;54.95;;
33505;SDS011;19843;51.040;13.782;2022-12-10T05:39:09;56.78;;;51.85;;
33505;SDS011;19843;51.040;13.782;2022-12-10T05:41:38;54.20;;;49.72;;
33505;SDS011;19843;51.040;13.782;2022-12-10T05:44:08;59.40;;;53.42;;
33505;SDS011;19843;51.040;13.782;2022-12-10T05:46:36;58.97;;;53.47;;
33505;SDS011;19843;51.040;13.782;2022-12-10T05:49:05;60.88;;;55.08;;
33505;SDS011;19843;51.040;13.782;2022-12-10T05:51:34;59.92;;;55.00;;
33505;SDS011;19843;51.040;13.782;2022-12-10T05:54:03;54.55;;;49.55;;
33505;SDS011;19843;51.040;13.782;2022-12-10T05:56:32;57.38;;;52.35;;
33505;SDS011;19843;51.040;13.782;2022-12-10T05:59:00;60.50;;;54.60;;
33505;SDS011;19843;51.040;13.782;2022-12-10T06:01:31;58.95;;;53.33;;
33505;SDS011;19843;51.040;13.782;2022-12-10T06:04:01;60.90;;;55.35;;
33505;SDS011;19843;51.040;13.782;2022-12-10T06:06:30;59.72;;;54.03;;
33505;SDS011;19843;51.040;13.782;2022-12-10T06:09:00;58.22;;;52.20;;
33505;SDS011;19843;51.040;13.782;2022-12-10T06:11:28;64.18;;;58.05;;
33505;SDS011;19843;51.040;13.782;2022-12-10T06:13:56;60.58;;;55.10;;
33505;SDS011;19843;51.040;13.782;2022-12-10T06:16:25;61.58;;;55.88;;
33505;SDS011;19843;51.040;13.782;2022-12-10T06:18:56;62.08;;;56.22;;
33505;SDS011;19843;51.040;13.782;2022-12-10T06:21:24;63.72;;;57.72;;
33505;SDS011;19843;51.040;13.782;2022-12-10T06:23:51;62.80;;;56.30;;
33505;SDS011;19843;51.040;13.782;2022-12-10T06:26:20;58.30;;;52.75;;
33505;SDS011;19843;51.040;13.782;2022-12-10T06:28:49;57.97;;;52.47;;
33505;SDS011;19843;51.040;13.782;2022-12-10T06:31:17;59.50;;;53.65;;
33505;SDS011;19843;51.040;13.782;2022-12-10T06:33:46;63.63;;;57.33;;
33505;SDS011;19843;51.040;13.782;2022-12-10T06:36:16;58.83;;;53.50;;
33505;SDS011;19843;51.040;13.782;2022-12-10T06:38:44;53.83;;;48.60;;
33505;SDS011;19843;51.040;13.782;2022-12-10T06:41:14;53.33;;;47.75;;
33505;SDS011;19843;51.040;13.782;2022-12-10T06:43:43;55.55;;;49.50;;
33505;SDS011;19843;51.040;13.782;2022-12-10T06:46:12;59.22;;;53.33;;
33505;SDS011;19843;51.040;13.782;2022-12-10T06:48:40;61.38;;;53.60;;
33505;SDS011;19843;51.040;13.782;2022-12-10T06:51:09;55.65;;;49.88;;
33505;SDS011;19843;51.040;13.782;2022-12-10T06:53:39;60.50;;;54.88;;
33505;SDS011;19843;51.040;13.782;2022-12-10T06:56:07;59.25;;;53.33;;
33505;SDS011;19843;51.040;13.782;2022-12-10T06:58:39;58.72;;;53.25;;
33505;SDS011;19843;51.040;13.782;2022-12-10T07:01:09;61.67;;;55.65;;
33505;SDS011;19843;51.040;13.782;2022-12-10T07:03:38;60.10;;;54.08;;
33505;SDS011;19843;51.040;13.782;2022-12-10T07:06:06;60.80;;;53.25;;
33505;SDS011;19843;51.040;13.782;2022-12-10T07:08:35;59.70;;;54.05;;
33505;SDS011;19843;51.040;13.782;2022-12-10T07:11:04;56.20;;;50.67;;
33505;SDS011;19843;51.040;13.782;2022-12-10T07:13:33;55.95;;;50.88;;
33505;SDS011;19843;51.040;13.782;2022-12-10T07:18:28;58.35;;;52.90;;
33505;SDS011;19843;51.040;13.782;2022-12-10T07:20:56;55.35;;;49.63;;
33505;SDS011;19843;51.040;13.782;2022-12-10T07:23:23;62.95;;;56.15;;
33505;SDS011;19843;51.040;13.782;2022-12-10T07:25:53;61.25;;;55.15;;
33505;SDS011;19843;51.040;13.782;2022-12-10T07:28:23;58.83;;;53.63;;
33505;SDS011;19843;51.040;13.782;2022-12-10T07:30:50;62.38;;;56.17;;
33505;SDS011;19843;51.040;13.782;2022-12-10T07:33:18;60.60;;;55.15;;
33505;SDS011;19843;51.040;13.782;2022-12-10T07:35:45;62.47;;;56.08;;
33505;SDS011;19843;51.040;13.782;2022-12-10T07:38:14;59.45;;;53.38;;
33505;SDS011;19843;51.040;13.782;2022-12-10T07:40:42;1999.90;;;999.90;;
33505;SDS011;19843;51.040;13.782;2022-12-10T07:43:09;1999.90;;;999.90;;
33505;SDS011;19843;51.040;13.782;2022-12-10T07:48:06;1999.90;;;999.90;;
33505;SDS011;19843;51.040;13.782;2022-12-10T07:50:33;1999.90;;;999.90;;
33505;SDS011;19843;51.040;13.782;2022-12-10T07:53:01;1999.90;;;999.90;;
33505;SDS011;19843;51.040;13.782;2022-12-10T07:55:28;1999.90;;;999.90;;
33505;SDS011;19843;51.040;13.782;2022-12-10T07:57:56;1999.90;;;999.90;;
33505;SDS011;19843;51.040;13.782;2022-12-10T08:00:23;1999.90;;;999.90;;
33505;SDS011;19843;51.040;13.782;2022-12-10T08:02:52;1999.90;;;999.90;;
33505;SDS011;19843;51.040;13.782;2022-12-10T08:05:20;1999.90;;;999.90;;
33505;SDS011;19843;51.040;13.782;2022-12-10T08:07:47;1999.90;;;999.90;;
33505;SDS011;19843;51.040;13.782;2022-12-10T08:10:15;1999.90;;;999.90;;
33505;SDS011;19843;51.040;13.782;2022-12-10T08:12:42;545.10;;;290.60;;
33505;SDS011;19843;51.040;13.782;2022-12-10T08:15:10;544.65;;;290.33;;
33505;SDS011;19843;51.040;13.782;2022-12-10T08:17:37;1999.90;;;999.90;;
33505;SDS011;19843;51.040;13.782;2022-12-10T08:20:07;1999.90;;;999.90;;
33505;SDS011;19843;51.040;13.782;2022-12-10T08:22:36;1999.90;;;999.90;;
33505;SDS011;19843;51.040;13.782;2022-12-10T08:25:05;1999.90;;;999.90;;
33505;SDS011;19843;51.040;13.782;2022-12-10T08:27:33;1999.90;;;999.90;;
33505;SDS011;19843;51.040;13.782;2022-12-10T08:30:01;1999.90;;;999.90;;
33505;SDS011;19843;51.040;13.782;2022-12-10T08:32:28;1999.90;;;999.90;;
33505;SDS011;19843;51.040;13.782;2022-12-10T08:34:56;59.17;;;53.42;;
33505;SDS011;19843;51.040;13.782;2022-12-10T08:37:24;61.95;;;56.22;;
33505;SDS011;19843;51.040;13.782;2022-12-10T08:39:52;1999.90;;;999.90;;
33505;SDS011;19843;51.040;13.782;2022-12-10T08:42:21;58.38;;;52.92;;
33505;SDS011;19843;51.040;13.782;2022-12-10T08:44:48;61.58;;;55.30;;
33505;SDS011;19843;51.040;13.782;2022-12-10T08:49:44;1999.90;;;999.90;;
33505;SDS011;19843;51.040;13.782;2022-12-10T08:52:11;62.72;;;56.45;;
33505;SDS011;19843;51.040;13.782;2022-12-10T08:54:40;62.03;;;56.15;;
33505;SDS011;19843;51.040;13.782;2022-12-10T08:57:08;58.20;;;52.63;;
33505;SDS011;19843;51.040;13.782;2022-12-10T08:59:35;64.55;;;53.08;;
33505;SDS011;19843;51.040;13.782;2022-12-10T09:02:03;61.15;;;53.35;;
33505;SDS011;19843;51.040;13.782;2022-12-10T09:04:30;60.40;;;54.50;;
33505;SDS011;19843;51.040;13.782;2022-12-10T09:06:58;58.97;;;53.53;;
33505;SDS011;19843;51.040;13.782;2022-12-10T09:09:25;57.17;;;51.90;;
33505;SDS011;19843;51.040;13.782;2022-12-10T09:11:54;54.67;;;49.60;;
33505;SDS011;19843;51.040;13.782;2022-12-10T09:14:22;61.45;;;55.63;;
33505;SDS011;19843;51.040;13.782;2022-12-10T09:16:49;61.00;;;54.30;;
33505;SDS011;19843;51.040;13.782;2022-12-10T09:19:17;55.72;;;50.42;;
33505;SDS011;19843;51.040;13.782;2022-12-10T09:21:45;56.00;;;50.33;;
33505;SDS011;19843;51.040;13.782;2022-12-10T09:24:13;55.78;;;50.00;;
33505;SDS011;19843;51.040;13.782;2022-12-10T09:26:41;65.15;;;52.17;;
33505;SDS011;19843;51.040;13.782;2022-12-10T09:29:10;61.47;;;55.00;;
33505;SDS011;19843;51.040;13.782;2022-12-10T09:31:37;59.33;;;53.60;;
33505;SDS011;19843;51.040;13.782;2022-12-10T09:34:05;58.00;;;52.03;;
33505;SDS011;19843;51.040;13.782;2022-12-10T09:36:32;55.58;;;49.42;;
33505;SDS011;19843;51.040;13.782;2022-12-10T09:39:03;64.88;;;53.17;;
33505;SDS011;19843;51.040;13.782;2022-12-10T09:41:35;56.25;;;50.83;;
33505;SDS011;19843;51.040;13.782;2022-12-10T09:44:19;56.70;;;51.17;;
33505;SDS011;19843;51.040;13.782;2022-12-10T09:46:57;56.28;;;50.85;;
33505;SDS011;19843;51.040;13.782;2022-12-10T09:49:29;58.38;;;52.80;;
33505;SDS011;19843;51.040;13.782;2022-12-10T09:52:06;54.30;;;48.22;;
33505;SDS011;19843;51.040;13.782;2022-12-10T09:54:40;59.20;;;54.08;;
33505;SDS011;19843;51.040;13.782;2022-12-10T09:57:15;59.75;;;54.58;;
33505;SDS011;19843;51.040;13.782;2022-12-10T09:59:49;62.25;;;56.53;;
33505;SDS011;19843;51.040;13.782;2022-12-10T10:02:21;58.70;;;53.03;;
33505;SDS011;19843;51.040;13.782;2022-12-10T10:04:52;58.90;;;53.28;;
33505;SDS011;19843;51.040;13.782;2022-12-10T10:07:26;59.63;;;54.58;;
33505;SDS011;19843;51.040;13.782;2022-12-10T10:09:57;64.18;;;57.67;;
33505;SDS011;19843;51.040;13.782;2022-12-10T10:12:28;61.22;;;54.80;;
33505;SDS011;19843;51.040;13.782;2022-12-10T10:15:00;58.80;;;53.42;;
33505;SDS011;19843;51.040;13.782;2022-12-10T10:17:39;62.70;;;57.47;;
33505;SDS011;19843;51.040;13.782;2022-12-10T10:20:11;63.13;;;56.45;;
33505;SDS011;19843;51.040;13.782;2022-12-10T10:22:39;64.30;;;58.22;;
33505;SDS011;19843;51.040;13.782;2022-12-10T10:25:08;61.90;;;56.17;;
33505;SDS011;19843;51.040;13.782;2022-12-10T10:27:41;54.63;;;49.72;;
33505;SDS011;19843;51.040;13.782;2022-12-10T10:30:14;60.95;;;55.53;;
33505;SDS011;19843;51.040;13.782;2022-12-10T10:32:45;59.45;;;54.28;;
33505;SDS011;19843;51.040;13.782;2022-12-10T10:35:23;64.70;;;58.10;;
33505;SDS011;19843;51.040;13.782;2022-12-10T10:37:56;59.95;;;54.42;;
33505;SDS011;19843;51.040;13.782;2022-12-10T10:40:25;61.80;;;54.97;;
33505;SDS011;19843;51.040;13.782;2022-12-10T10:42:57;1999.90;;;999.90;;
33505;SDS011;19843;51.040;13.782;2022-12-10T10:45:35;67.07;;;58.58;;
33505;SDS011;19843;51.040;13.782;2022-12-10T10:48:10;1999.90;;;999.90;;
33505;SDS011;19843;51.040;13.782;2022-12-10T10:50:40;1999.90;;;999.90;;
33505;SDS011;19843;51.040;13.782;2022-12-10T10:56:05;1999.90;;;999.90;;
33505;SDS011;19843;51.040;13.782;2022-12-10T10:58:35;1999.90;;;999.90;;
33505;SDS011;19843;51.040;13.782;2022-12-10T11:01:12;1999.90;;;999.90;;
33505;SDS011;19843;51.040;13.782;2022-12-10T11:03:44;1999.90;;;999.90;;
33505;SDS011;19843;51.040;13.782;2022-12-10T11:06:14;1999.90;;;999.90;;
33505;SDS011;19843;51.040;13.782;2022-12-10T11:08:42;1999.90;;;999.90;;
33505;SDS011;19843;51.040;13.782;2022-12-10T11:11:12;1999.90;;;999.90;;
33505;SDS011;19843;51.040;13.782;2022-12-10T11:13:44;1999.90;;;999.90;;
33505;SDS011;19843;51.040;13.782;2022-12-10T11:16:16;1999.90;;;999.90;;
33505;SDS011;19843;51.040;13.782;2022-12-10T11:18:54;1999.90;;;999.90;;
33505;SDS011;19843;51.040;13.782;2022-12-10T11:21:28;1999.90;;;999.90;;
33505;SDS011;19843;51.040;13.782;2022-12-10T11:23:57;1999.90;;;999.90;;
33505;SDS011;19843;51.040;13.782;2022-12-10T11:26:35;1999.90;;;999.90;;
33505;SDS011;19843;51.040;13.782;2022-12-10T11:29:14;1999.90;;;999.90;;
33505;SDS011;19843;51.040;13.782;2022-12-10T11:31:58;1999.90;;;999.90;;
33505;SDS011;19843;51.040;13.782;2022-12-10T11:34:42;1999.90;;;999.90;;
33505;SDS011;19843;51.040;13.782;2022-12-10T11:37:18;1999.90;;;999.90;;
33505;SDS011;19843;51.040;13.782;2022-12-10T11:40:02;1999.90;;;999.90;;
33505;SDS011;19843;51.040;13.782;2022-12-10T11:42:43;1999.90;;;999.90;;
33505;SDS011;19843;51.040;13.782;2022-12-10T11:45:23;1999.90;;;999.90;;
33505;SDS011;19843;51.040;13.782;2022-12-10T11:48:03;1999.90;;;999.90;;
33505;SDS011;19843;51.040;13.782;2022-12-10T11:50:42;1999.90;;;999.90;;
33505;SDS011;19843;51.040;13.782;2022-12-10T11:53:17;1999.90;;;999.90;;
33505;SDS011;19843;51.040;13.782;2022-12-10T11:55:56;1999.90;;;999.90;;
33505;SDS011;19843;51.040;13.782;2022-12-10T11:58:37;1999.90;;;999.90;;
33505;SDS011;19843;51.040;13.782;2022-12-10T12:01:18;1999.90;;;999.90;;
33505;SDS011;19843;51.040;13.782;2022-12-10T12:03:58;1999.90;;;999.90;;
33505;SDS011;19843;51.040;13.782;2022-12-10T12:06:38;1999.90;;;999.90;;
33505;SDS011;19843;51.040;13.782;2022-12-10T12:09:22;1999.90;;;999.90;;
33505;SDS011;19843;51.040;13.782;2022-12-10T12:12:01;1999.90;;;999.90;;
33505;SDS011;19843;51.040;13.782;2022-12-10T12:14:40;1999.90;;;999.90;;
33505;SDS011;19843;51.040;13.782;2022-12-10T12:17:11;1999.90;;;999.90;;
33505;SDS011;19843;51.040;13.782;2022-12-10T12:19:47;1999.90;;;999.90;;
33505;SDS011;19843;51.040;13.782;2022-12-10T12:22:21;1999.90;;;999.90;;
33505;SDS011;19843;51.040;13.782;2022-12-10T12:24:52;1999.90;;;999.90;;
33505;SDS011;19843;51.040;13.782;2022-12-10T12:27:25;1999.90;;;999.90;;
33505;SDS011;19843;51.040;13.782;2022-12-10T12:30:00;1999.90;;;999.90;;
33505;SDS011;19843;51.040;13.782;2022-12-10T12:32:31;1999.90;;;999.90;;
33505;SDS011;19843;51.040;13.782;2022-12-10T12:35:12;1999.90;;;999.90;;
33505;SDS011;19843;51.040;13.782;2022-12-10T12:37:45;1999.90;;;999.90;;
33505;SDS011;19843;51.040;13.782;2022-12-10T12:40:20;1999.90;;;999.90;;
33505;SDS011;19843;51.040;13.782;2022-12-10T12:42:55;1999.90;;;999.90;;
33505;SDS011;19843;51.040;13.782;2022-12-10T12:45:29;1999.90;;;999.90;;
33505;SDS011;19843;51.040;13.782;2022-12-10T12:48:04;1999.90;;;999.90;;
33505;SDS011;19843;51.040;13.782;2022-12-10T12:50:41;1999.90;;;999.90;;
33505;SDS011;19843;51.040;13.782;2022-12-10T12:53:12;1999.90;;;999.90;;
33505;SDS011;19843;51.040;13.782;2022-12-10T12:55:46;1999.90;;;999.90;;
33505;SDS011;19843;51.040;13.782;2022-12-10T12:58:24;1999.90;;;999.90;;
33505;SDS011;19843;51.040;13.782;2022-12-10T13:00:59;1999.90;;;999.90;;
33505;SDS011;19843;51.040;13.782;2022-12-10T13:03:35;1999.90;;;999.90;;
33505;SDS011;19843;51.040;13.782;2022-12-10T13:06:18;1999.90;;;999.90;;
33505;SDS011;19843;51.040;13.782;2022-12-10T13:08:50;1999.90;;;999.90;;
33505;SDS011;19843;51.040;13.782;2022-12-10T13:11:31;1999.90;;;999.90;;
33505;SDS011;19843;51.040;13.782;2022-12-10T13:14:11;1999.90;;;999.90;;
33505;SDS011;19843;51.040;13.782;2022-12-10T13:16:48;1999.90;;;999.90;;
33505;SDS011;19843;51.040;13.782;2022-12-10T13:19:29;1999.90;;;999.90;;
33505;SDS011;19843;51.040;13.782;2022-12-10T13:22:03;1999.90;;;999.90;;
33505;SDS011;19843;51.040;13.782;2022-12-10T13:27:38;1999.90;;;999.90;;
33505;SDS011;19843;51.040;13.782;2022-12-10T13:30:25;1999.90;;;999.90;;
33505;SDS011;19843;51.040;13.782;2022-12-10T13:33:03;1999.90;;;999.90;;
33505;SDS011;19843;51.040;13.782;2022-12-10T13:35:43;1999.90;;;999.90;;
33505;SDS011;19843;51.040;13.782;2022-12-10T13:38:20;1999.90;;;999.90;;
33505;SDS011;19843;51.040;13.782;2022-12-10T13:40:58;1999.90;;;999.90;;
33505;SDS011;19843;51.040;13.782;2022-12-10T13:43:52;1999.90;;;999.90;;
33505;SDS011;19843;51.040;13.782;2022-12-10T13:46:52;1999.90;;;999.90;;
33505;SDS011;19843;51.040;13.782;2022-12-10T13:49:22;1999.90;;;999.90;;
33505;SDS011;19843;51.040;13.782;2022-12-10T13:51:58;1999.90;;;999.90;;
33505;SDS011;19843;51.040;13.782;2022-12-10T13:57:50;1999.90;;;999.90;;
33505;SDS011;19843;51.040;13.782;2022-12-10T14:00:29;1999.90;;;999.90;;
33505;SDS011;19843;51.040;13.782;2022-12-10T14:03:19;1999.90;;;999.90;;
33505;SDS011;19843;51.040;13.782;2022-12-10T14:06:15;1999.90;;;999.90;;
33505;SDS011;19843;51.040;13.782;2022-12-10T14:08:53;1999.90;;;999.90;;
33505;SDS011;19843;51.040;13.782;2022-12-10T14:11:26;1999.90;;;999.90;;
33505;SDS011;19843;51.040;13.782;2022-12-10T14:14:02;1999.90;;;999.90;;
33505;SDS011;19843;51.040;13.782;2022-12-10T14:16:32;1999.90;;;999.90;;
33505;SDS011;19843;51.040;13.782;2022-12-10T14:19:03;1999.90;;;999.90;;
33505;SDS011;19843;51.040;13.782;2022-12-10T14:21:34;1999.90;;;999.90;;
33505;SDS011;19843;51.040;13.782;2022-12-10T14:24:05;1999.90;;;999.90;;
33505;SDS011;19843;51.040;13.782;2022-12-10T14:26:35;1999.90;;;999.90;;
33505;SDS011;19843;51.040;13.782;2022-12-10T14:29:12;1999.90;;;999.90;;
33505;SDS011;19843;51.040;13.782;2022-12-10T14:31:54;1999.90;;;999.90;;
33505;SDS011;19843;51.040;13.782;2022-12-10T14:34:23;1999.90;;;999.90;;
33505;SDS011;19843;51.040;13.782;2022-12-10T14:36:54;1999.90;;;999.90;;
33505;SDS011;19843;51.040;13.782;2022-12-10T14:39:25;1999.90;;;999.90;;
33505;SDS011;19843;51.040;13.782;2022-12-10T14:41:57;1999.90;;;999.90;;
33505;SDS011;19843;51.040;13.782;2022-12-10T14:44:27;1999.90;;;999.90;;
33505;SDS011;19843;51.040;13.782;2022-12-10T14:47:04;1999.90;;;999.90;;